Clarksville, Delaware
Current Conditions -  °F | °C
As of 4:53 PM on Tuesday 25 Nov 2014 (Local Time) from KOXB Reporting Station
Broken Clouds Broken Clouds  
Wind Chill: 52°   Ceiling: 12000
Heat Index: 52°   Visibility: 10mi
Dew Point: 41°   Wind: 6mph
Humidity: 66%   Direction: 40°NE
Pressure: 30.07"   Gusts: NA
Location:  38.5606°N, 75.0865°W
Report Text: KOXB 252153Z AUTO 04005KT 10SM FEW036 SCT075 BKN120 11/05 A3007 RMK AO2 SLP183 T01110050 TSNO
Loading
Personal Weather Stations






























Interactive Weather Map New forecast layout! Learn more

10-Day Weather Forecast

Advertisements
Track Severe Weather on mobile